Terminal Aerodrome Forecast
Issued by NWS

Home | Current Version | Previous Version | Text Only | Print | Product List | Glossary On
Versions: 1 2 3 4 5 6 7 8 9 10 11 12 13
000
FTUS45 KABQ 030500
TAFLVS
TAF
KLVS 030522Z 0306/0406 17012KT P6SM FEW130
     FM031200 20010KT P6SM SKC
     FM031800 21015G25KT P6SM FEW080 SCT250
     FM040300 18012KT P6SM SCT100 SCT150=

USA.gov is the U.S. government's official web portal to all federal, state and local government web resources and services.